Absaraka, North Dakota
Current Conditions -  °F | °C
As of 8:53 AM on Friday 31 Oct 2014 (Local Time) from KFAR Reporting Station
Clear Clear  
Wind Chill: 10°   Ceiling: Unl
Heat Index: 17°   Visibility: 10mi
Dew Point: 12°   Wind: 5mph
Humidity: 81%   Direction: 280°W
Pressure: 30.63"   Gusts: NA
Location:  46.98°N, 97.39°W
Report Text: KFAR 311353Z 28004KT 10SM CLR M08/M11 A3063 RMK AO2 SLP391 T10831111
Loading
Personal Weather Stations






























Interactive Weather Map
Tropical Storm Tracking
New forecast layout! Learn more

10-Day Weather Forecast

Advertisements
Track Severe Weather on mobile